sensor_id;sensor_type;location;lat;lon;timestamp;P1;durP1;ratioP1;P2;durP2;ratioP2
33270;SDS011;53180;51.344;6.152;2022-11-15T00:01:22;5.97;;;4.00;;
33270;SDS011;53180;51.344;6.152;2022-11-15T00:03:51;13.13;;;4.28;;
33270;SDS011;53180;51.344;6.152;2022-11-15T00:06:19;6.47;;;3.67;;
33270;SDS011;53180;51.344;6.152;2022-11-15T00:08:47;5.32;;;3.55;;
33270;SDS011;53180;51.344;6.152;2022-11-15T00:11:16;5.80;;;3.92;;
33270;SDS011;53180;51.344;6.152;2022-11-15T00:13:46;4.78;;;3.40;;
33270;SDS011;53180;51.344;6.152;2022-11-15T00:16:14;4.68;;;3.80;;
33270;SDS011;53180;51.344;6.152;2022-11-15T00:18:42;5.72;;;4.03;;
33270;SDS011;53180;51.344;6.152;2022-11-15T00:21:16;5.63;;;4.03;;
33270;SDS011;53180;51.344;6.152;2022-11-15T00:23:45;6.75;;;4.60;;
33270;SDS011;53180;51.344;6.152;2022-11-15T00:26:14;5.10;;;3.88;;
33270;SDS011;53180;51.344;6.152;2022-11-15T00:28:42;4.72;;;3.65;;
33270;SDS011;53180;51.344;6.152;2022-11-15T00:31:13;7.20;;;4.43;;
33270;SDS011;53180;51.344;6.152;2022-11-15T00:33:42;4.10;;;3.05;;
33270;SDS011;53180;51.344;6.152;2022-11-15T00:36:11;5.82;;;3.80;;
33270;SDS011;53180;51.344;6.152;2022-11-15T00:38:40;5.40;;;4.03;;
33270;SDS011;53180;51.344;6.152;2022-11-15T00:41:08;4.20;;;3.40;;
33270;SDS011;53180;51.344;6.152;2022-11-15T00:43:36;8.95;;;4.13;;
33270;SDS011;53180;51.344;6.152;2022-11-15T00:46:06;6.93;;;4.38;;
33270;SDS011;53180;51.344;6.152;2022-11-15T00:48:37;6.90;;;3.90;;
33270;SDS011;53180;51.344;6.152;2022-11-15T00:51:05;5.88;;;3.58;;
33270;SDS011;53180;51.344;6.152;2022-11-15T00:53:34;7.63;;;3.95;;
33270;SDS011;53180;51.344;6.152;2022-11-15T00:56:02;7.50;;;4.00;;
33270;SDS011;53180;51.344;6.152;2022-11-15T00:58:31;5.63;;;3.97;;
33270;SDS011;53180;51.344;6.152;2022-11-15T01:01:05;5.10;;;3.95;;
33270;SDS011;53180;51.344;6.152;2022-11-15T01:03:35;5.35;;;3.88;;
33270;SDS011;53180;51.344;6.152;2022-11-15T01:06:06;8.93;;;4.80;;
33270;SDS011;53180;51.344;6.152;2022-11-15T01:08:36;7.20;;;4.00;;
33270;SDS011;53180;51.344;6.152;2022-11-15T01:11:06;4.18;;;3.30;;
33270;SDS011;53180;51.344;6.152;2022-11-15T01:13:38;7.32;;;4.28;;
33270;SDS011;53180;51.344;6.152;2022-11-15T01:16:09;5.68;;;3.72;;
33270;SDS011;53180;51.344;6.152;2022-11-15T01:18:41;3.75;;;3.00;;
33270;SDS011;53180;51.344;6.152;2022-11-15T01:21:11;5.32;;;4.00;;
33270;SDS011;53180;51.344;6.152;2022-11-15T01:23:42;5.72;;;3.80;;
33270;SDS011;53180;51.344;6.152;2022-11-15T01:26:13;5.80;;;3.70;;
33270;SDS011;53180;51.344;6.152;2022-11-15T01:28:42;5.40;;;3.95;;
33270;SDS011;53180;51.344;6.152;2022-11-15T01:31:11;5.78;;;3.85;;
33270;SDS011;53180;51.344;6.152;2022-11-15T01:33:45;6.07;;;4.00;;
33270;SDS011;53180;51.344;6.152;2022-11-15T01:36:15;4.75;;;3.80;;
33270;SDS011;53180;51.344;6.152;2022-11-15T01:38:52;6.82;;;4.15;;
33270;SDS011;53180;51.344;6.152;2022-11-15T01:41:22;5.50;;;3.50;;
33270;SDS011;53180;51.344;6.152;2022-11-15T01:43:54;5.53;;;3.55;;
33270;SDS011;53180;51.344;6.152;2022-11-15T01:46:26;6.35;;;4.15;;
33270;SDS011;53180;51.344;6.152;2022-11-15T01:49:01;5.30;;;3.83;;
33270;SDS011;53180;51.344;6.152;2022-11-15T01:51:36;5.82;;;3.53;;
33270;SDS011;53180;51.344;6.152;2022-11-15T01:54:06;5.38;;;3.38;;
33270;SDS011;53180;51.344;6.152;2022-11-15T01:56:38;6.70;;;3.60;;
33270;SDS011;53180;51.344;6.152;2022-11-15T01:59:14;5.15;;;3.72;;
33270;SDS011;53180;51.344;6.152;2022-11-15T02:01:43;4.18;;;3.15;;
33270;SDS011;53180;51.344;6.152;2022-11-15T02:04:13;5.10;;;3.88;;
33270;SDS011;53180;51.344;6.152;2022-11-15T02:06:48;5.43;;;3.90;;
33270;SDS011;53180;51.344;6.152;2022-11-15T02:09:17;5.20;;;3.75;;
33270;SDS011;53180;51.344;6.152;2022-11-15T02:11:46;4.93;;;3.42;;
33270;SDS011;53180;51.344;6.152;2022-11-15T02:14:16;6.30;;;4.22;;
33270;SDS011;53180;51.344;6.152;2022-11-15T02:16:48;3.80;;;3.10;;
33270;SDS011;53180;51.344;6.152;2022-11-15T02:19:43;6.78;;;4.45;;
33270;SDS011;53180;51.344;6.152;2022-11-15T02:23:28;4.43;;;3.38;;
33270;SDS011;53180;51.344;6.152;2022-11-15T02:26:29;9.07;;;3.90;;
33270;SDS011;53180;51.344;6.152;2022-11-15T02:29:41;4.40;;;3.13;;
33270;SDS011;53180;51.344;6.152;2022-11-15T02:32:42;4.13;;;3.30;;
33270;SDS011;53180;51.344;6.152;2022-11-15T02:35:16;6.15;;;3.60;;
33270;SDS011;53180;51.344;6.152;2022-11-15T02:37:58;6.38;;;3.72;;
33270;SDS011;53180;51.344;6.152;2022-11-15T02:40:37;5.45;;;3.65;;
33270;SDS011;53180;51.344;6.152;2022-11-15T02:43:13;7.07;;;3.75;;
33270;SDS011;53180;51.344;6.152;2022-11-15T02:46:17;4.95;;;3.30;;
33270;SDS011;53180;51.344;6.152;2022-11-15T02:49:12;6.88;;;4.03;;
33270;SDS011;53180;51.344;6.152;2022-11-15T02:51:42;8.23;;;3.70;;
33270;SDS011;53180;51.344;6.152;2022-11-15T02:54:15;4.70;;;3.33;;
33270;SDS011;53180;51.344;6.152;2022-11-15T02:56:50;3.97;;;3.13;;
33270;SDS011;53180;51.344;6.152;2022-11-15T02:59:27;3.97;;;3.03;;
33270;SDS011;53180;51.344;6.152;2022-11-15T03:02:31;5.45;;;3.72;;
33270;SDS011;53180;51.344;6.152;2022-11-15T03:05:17;4.75;;;3.10;;
33270;SDS011;53180;51.344;6.152;2022-11-15T03:07:53;5.65;;;3.22;;
33270;SDS011;53180;51.344;6.152;2022-11-15T03:10:32;5.38;;;3.25;;
33270;SDS011;53180;51.344;6.152;2022-11-15T03:13:13;7.97;;;3.40;;
33270;SDS011;53180;51.344;6.152;2022-11-15T03:15:50;5.43;;;3.15;;
33270;SDS011;53180;51.344;6.152;2022-11-15T03:18:29;5.20;;;3.65;;
33270;SDS011;53180;51.344;6.152;2022-11-15T03:21:02;6.50;;;3.95;;
33270;SDS011;53180;51.344;6.152;2022-11-15T03:23:34;5.93;;;3.85;;
33270;SDS011;53180;51.344;6.152;2022-11-15T03:26:05;4.90;;;3.10;;
33270;SDS011;53180;51.344;6.152;2022-11-15T03:28:38;7.07;;;3.78;;
33270;SDS011;53180;51.344;6.152;2022-11-15T03:31:11;5.80;;;3.30;;
33270;SDS011;53180;51.344;6.152;2022-11-15T03:34:00;4.53;;;3.42;;
33270;SDS011;53180;51.344;6.152;2022-11-15T03:36:33;7.28;;;3.38;;
33270;SDS011;53180;51.344;6.152;2022-11-15T03:39:04;4.25;;;3.00;;
33270;SDS011;53180;51.344;6.152;2022-11-15T03:41:35;4.82;;;3.42;;
33270;SDS011;53180;51.344;6.152;2022-11-15T03:44:13;3.55;;;2.97;;
33270;SDS011;53180;51.344;6.152;2022-11-15T03:46:51;5.28;;;3.13;;
33270;SDS011;53180;51.344;6.152;2022-11-15T03:49:28;4.40;;;3.10;;
33270;SDS011;53180;51.344;6.152;2022-11-15T03:52:01;3.60;;;2.88;;
33270;SDS011;53180;51.344;6.152;2022-11-15T03:54:31;4.53;;;2.97;;
33270;SDS011;53180;51.344;6.152;2022-11-15T03:56:59;5.22;;;3.20;;
33270;SDS011;53180;51.344;6.152;2022-11-15T03:59:28;3.90;;;2.95;;
33270;SDS011;53180;51.344;6.152;2022-11-15T04:01:56;3.95;;;2.92;;
33270;SDS011;53180;51.344;6.152;2022-11-15T04:04:24;3.95;;;3.15;;
33270;SDS011;53180;51.344;6.152;2022-11-15T04:06:54;3.67;;;3.20;;
33270;SDS011;53180;51.344;6.152;2022-11-15T04:09:22;4.28;;;2.80;;
33270;SDS011;53180;51.344;6.152;2022-11-15T04:11:51;4.72;;;3.08;;
33270;SDS011;53180;51.344;6.152;2022-11-15T04:14:19;4.07;;;3.03;;
33270;SDS011;53180;51.344;6.152;2022-11-15T04:16:47;4.45;;;3.15;;
33270;SDS011;53180;51.344;6.152;2022-11-15T04:19:16;4.13;;;2.90;;
33270;SDS011;53180;51.344;6.152;2022-11-15T04:22:03;4.22;;;3.05;;
33270;SDS011;53180;51.344;6.152;2022-11-15T04:24:48;3.65;;;2.75;;
33270;SDS011;53180;51.344;6.152;2022-11-15T04:27:16;4.03;;;2.65;;
33270;SDS011;53180;51.344;6.152;2022-11-15T04:29:45;3.45;;;2.90;;
33270;SDS011;53180;51.344;6.152;2022-11-15T04:32:14;3.92;;;3.03;;
33270;SDS011;53180;51.344;6.152;2022-11-15T04:34:42;3.88;;;2.72;;
33270;SDS011;53180;51.344;6.152;2022-11-15T04:37:12;4.18;;;2.92;;
33270;SDS011;53180;51.344;6.152;2022-11-15T04:39:39;3.55;;;2.80;;
33270;SDS011;53180;51.344;6.152;2022-11-15T04:42:08;3.30;;;2.47;;
33270;SDS011;53180;51.344;6.152;2022-11-15T04:44:37;4.45;;;2.90;;
33270;SDS011;53180;51.344;6.152;2022-11-15T04:47:05;3.60;;;2.78;;
33270;SDS011;53180;51.344;6.152;2022-11-15T04:49:33;3.55;;;2.67;;
33270;SDS011;53180;51.344;6.152;2022-11-15T04:52:02;3.80;;;2.95;;
33270;SDS011;53180;51.344;6.152;2022-11-15T04:54:32;4.38;;;2.80;;
33270;SDS011;53180;51.344;6.152;2022-11-15T04:57:00;4.60;;;2.97;;
33270;SDS011;53180;51.344;6.152;2022-11-15T04:59:28;3.63;;;2.38;;
33270;SDS011;53180;51.344;6.152;2022-11-15T05:01:56;4.05;;;2.90;;
33270;SDS011;53180;51.344;6.152;2022-11-15T05:04:25;4.65;;;3.35;;
33270;SDS011;53180;51.344;6.152;2022-11-15T05:06:52;3.88;;;3.00;;
33270;SDS011;53180;51.344;6.152;2022-11-15T05:09:21;5.05;;;3.15;;
33270;SDS011;53180;51.344;6.152;2022-11-15T05:11:51;4.95;;;3.17;;
33270;SDS011;53180;51.344;6.152;2022-11-15T05:14:19;4.45;;;3.17;;
33270;SDS011;53180;51.344;6.152;2022-11-15T05:16:48;4.35;;;3.05;;
33270;SDS011;53180;51.344;6.152;2022-11-15T05:19:17;4.72;;;3.40;;
33270;SDS011;53180;51.344;6.152;2022-11-15T05:21:45;5.00;;;3.13;;
33270;SDS011;53180;51.344;6.152;2022-11-15T05:24:14;4.35;;;3.53;;
33270;SDS011;53180;51.344;6.152;2022-11-15T05:26:42;7.03;;;3.13;;
33270;SDS011;53180;51.344;6.152;2022-11-15T05:29:12;4.35;;;3.05;;
33270;SDS011;53180;51.344;6.152;2022-11-15T05:31:40;3.88;;;2.60;;
33270;SDS011;53180;51.344;6.152;2022-11-15T05:34:09;6.10;;;3.20;;
33270;SDS011;53180;51.344;6.152;2022-11-15T05:36:38;4.45;;;3.20;;
33270;SDS011;53180;51.344;6.152;2022-11-15T05:39:11;4.72;;;3.38;;
33270;SDS011;53180;51.344;6.152;2022-11-15T05:41:40;12.75;;;6.10;;
33270;SDS011;53180;51.344;6.152;2022-11-15T05:44:13;4.40;;;3.35;;
33270;SDS011;53180;51.344;6.152;2022-11-15T05:46:45;7.20;;;3.55;;
33270;SDS011;53180;51.344;6.152;2022-11-15T05:49:16;5.55;;;2.55;;
33270;SDS011;53180;51.344;6.152;2022-11-15T05:51:47;6.68;;;2.78;;
33270;SDS011;53180;51.344;6.152;2022-11-15T05:54:17;6.50;;;2.90;;
33270;SDS011;53180;51.344;6.152;2022-11-15T05:56:47;7.38;;;2.90;;
33270;SDS011;53180;51.344;6.152;2022-11-15T05:59:18;4.57;;;2.90;;
33270;SDS011;53180;51.344;6.152;2022-11-15T06:01:47;3.53;;;2.75;;
33270;SDS011;53180;51.344;6.152;2022-11-15T06:04:16;3.22;;;2.40;;
33270;SDS011;53180;51.344;6.152;2022-11-15T06:06:44;3.25;;;2.63;;
33270;SDS011;53180;51.344;6.152;2022-11-15T06:09:12;4.68;;;3.15;;
33270;SDS011;53180;51.344;6.152;2022-11-15T06:11:40;3.38;;;2.53;;
33270;SDS011;53180;51.344;6.152;2022-11-15T06:14:09;4.90;;;3.10;;
33270;SDS011;53180;51.344;6.152;2022-11-15T06:16:38;4.22;;;2.95;;
33270;SDS011;53180;51.344;6.152;2022-11-15T06:19:07;4.15;;;2.80;;
33270;SDS011;53180;51.344;6.152;2022-11-15T06:21:35;3.95;;;2.78;;
33270;SDS011;53180;51.344;6.152;2022-11-15T06:24:04;3.63;;;2.88;;
33270;SDS011;53180;51.344;6.152;2022-11-15T06:26:33;9.60;;;2.70;;
33270;SDS011;53180;51.344;6.152;2022-11-15T06:29:02;3.30;;;2.53;;
33270;SDS011;53180;51.344;6.152;2022-11-15T06:31:31;3.35;;;2.50;;
33270;SDS011;53180;51.344;6.152;2022-11-15T06:34:02;4.60;;;2.60;;
33270;SDS011;53180;51.344;6.152;2022-11-15T06:36:30;2.17;;;1.98;;
33270;SDS011;53180;51.344;6.152;2022-11-15T06:38:58;4.32;;;2.25;;
33270;SDS011;53180;51.344;6.152;2022-11-15T06:41:26;3.88;;;2.13;;
33270;SDS011;53180;51.344;6.152;2022-11-15T06:43:56;9.48;;;2.35;;
33270;SDS011;53180;51.344;6.152;2022-11-15T06:46:24;3.38;;;1.88;;
33270;SDS011;53180;51.344;6.152;2022-11-15T06:48:53;4.43;;;2.03;;
33270;SDS011;53180;51.344;6.152;2022-11-15T06:51:23;2.63;;;2.00;;
33270;SDS011;53180;51.344;6.152;2022-11-15T06:53:51;2.13;;;1.60;;
33270;SDS011;53180;51.344;6.152;2022-11-15T06:56:20;3.08;;;1.63;;
33270;SDS011;53180;51.344;6.152;2022-11-15T06:58:48;1.90;;;1.60;;
33270;SDS011;53180;51.344;6.152;2022-11-15T07:01:16;2.13;;;1.80;;
33270;SDS011;53180;51.344;6.152;2022-11-15T07:03:45;2.72;;;2.13;;
33270;SDS011;53180;51.344;6.152;2022-11-15T07:06:13;2.28;;;1.67;;
33270;SDS011;53180;51.344;6.152;2022-11-15T07:08:43;1.70;;;1.40;;
33270;SDS011;53180;51.344;6.152;2022-11-15T07:11:11;2.00;;;1.53;;
33270;SDS011;53180;51.344;6.152;2022-11-15T07:13:40;1.65;;;1.40;;
33270;SDS011;53180;51.344;6.152;2022-11-15T07:16:09;2.25;;;1.55;;
33270;SDS011;53180;51.344;6.152;2022-11-15T07:18:39;1.85;;;1.60;;
33270;SDS011;53180;51.344;6.152;2022-11-15T07:21:08;1.27;;;1.17;;
33270;SDS011;53180;51.344;6.152;2022-11-15T07:26:08;1.38;;;1.27;;
33270;SDS011;53180;51.344;6.152;2022-11-15T07:28:37;1.40;;;1.30;;
33270;SDS011;53180;51.344;6.152;2022-11-15T07:31:06;1.27;;;1.17;;
33270;SDS011;53180;51.344;6.152;2022-11-15T07:33:35;2.33;;;1.60;;
33270;SDS011;53180;51.344;6.152;2022-11-15T07:36:05;1.67;;;1.40;;
33270;SDS011;53180;51.344;6.152;2022-11-15T07:38:35;1.73;;;1.63;;
33270;SDS011;53180;51.344;6.152;2022-11-15T07:41:09;1.58;;;1.45;;
33270;SDS011;53180;51.344;6.152;2022-11-15T07:43:38;1.65;;;1.55;;
33270;SDS011;53180;51.344;6.152;2022-11-15T07:46:07;2.20;;;1.60;;
33270;SDS011;53180;51.344;6.152;2022-11-15T07:48:36;2.70;;;1.60;;
33270;SDS011;53180;51.344;6.152;2022-11-15T07:51:11;1.75;;;1.48;;
33270;SDS011;53180;51.344;6.152;2022-11-15T07:53:40;1.20;;;1.10;;
33270;SDS011;53180;51.344;6.152;2022-11-15T07:56:10;1.83;;;1.50;;
33270;SDS011;53180;51.344;6.152;2022-11-15T07:58:39;2.92;;;1.20;;
33270;SDS011;53180;51.344;6.152;2022-11-15T08:01:09;1.45;;;1.35;;
33270;SDS011;53180;51.344;6.152;2022-11-15T08:03:38;1.40;;;1.30;;
33270;SDS011;53180;51.344;6.152;2022-11-15T08:06:06;1.50;;;1.40;;
33270;SDS011;53180;51.344;6.152;2022-11-15T08:08:34;1.50;;;1.40;;
33270;SDS011;53180;51.344;6.152;2022-11-15T08:11:03;1.83;;;1.50;;
33270;SDS011;53180;51.344;6.152;2022-11-15T08:13:33;1.80;;;1.60;;
33270;SDS011;53180;51.344;6.152;2022-11-15T08:16:02;1.67;;;1.42;;
33270;SDS011;53180;51.344;6.152;2022-11-15T08:18:32;1.58;;;1.45;;
33270;SDS011;53180;51.344;6.152;2022-11-15T08:21:00;1.88;;;1.60;;
33270;SDS011;53180;51.344;6.152;2022-11-15T08:23:29;2.70;;;1.45;;
33270;SDS011;53180;51.344;6.152;2022-11-15T08:25:59;2.83;;;1.70;;
33270;SDS011;53180;51.344;6.152;2022-11-15T08:28:29;1.73;;;1.37;;
33270;SDS011;53180;51.344;6.152;2022-11-15T08:30:59;1.60;;;1.20;;
33270;SDS011;53180;51.344;6.152;2022-11-15T08:33:28;1.02;;;0.95;;
33270;SDS011;53180;51.344;6.152;2022-11-15T08:35:58;1.63;;;1.33;;
33270;SDS011;53180;51.344;6.152;2022-11-15T08:38:28;1.48;;;1.38;;
33270;SDS011;53180;51.344;6.152;2022-11-15T08:40:59;1.50;;;1.30;;
33270;SDS011;53180;51.344;6.152;2022-11-15T08:43:30;1.30;;;1.20;;
33270;SDS011;53180;51.344;6.152;2022-11-15T08:46:01;1.20;;;1.10;;
33270;SDS011;53180;51.344;6.152;2022-11-15T08:48:29;1.35;;;1.23;;
33270;SDS011;53180;51.344;6.152;2022-11-15T08:50:58;1.25;;;1.20;;
33270;SDS011;53180;51.344;6.152;2022-11-15T08:53:26;1.25;;;1.15;;
33270;SDS011;53180;51.344;6.152;2022-11-15T08:55:54;1.35;;;1.10;;
33270;SDS011;53180;51.344;6.152;2022-11-15T08:58:23;0.90;;;0.90;;
33270;SDS011;53180;51.344;6.152;2022-11-15T09:00:51;1.20;;;1.15;;
33270;SDS011;53180;51.344;6.152;2022-11-15T09:03:21;1.00;;;1.00;;
33270;SDS011;53180;51.344;6.152;2022-11-15T09:05:53;1.55;;;1.23;;
33270;SDS011;53180;51.344;6.152;2022-11-15T09:08:23;1.17;;;0.98;;
33270;SDS011;53180;51.344;6.152;2022-11-15T09:11:11;1.42;;;1.08;;
33270;SDS011;53180;51.344;6.152;2022-11-15T09:13:40;0.90;;;0.90;;
33270;SDS011;53180;51.344;6.152;2022-11-15T09:16:09;0.88;;;0.88;;
33270;SDS011;53180;51.344;6.152;2022-11-15T09:18:41;0.75;;;0.70;;
33270;SDS011;53180;51.344;6.152;2022-11-15T09:21:09;1.58;;;1.02;;
33270;SDS011;53180;51.344;6.152;2022-11-15T09:23:37;0.95;;;0.88;;
33270;SDS011;53180;51.344;6.152;2022-11-15T09:26:06;0.95;;;0.90;;
33270;SDS011;53180;51.344;6.152;2022-11-15T09:28:35;0.82;;;0.82;;
33270;SDS011;53180;51.344;6.152;2022-11-15T09:31:05;1.20;;;1.10;;
33270;SDS011;53180;51.344;6.152;2022-11-15T09:33:33;1.05;;;0.95;;
33270;SDS011;53180;51.344;6.152;2022-11-15T09:36:05;1.27;;;0.90;;
33270;SDS011;53180;51.344;6.152;2022-11-15T09:38:35;2.85;;;0.88;;
33270;SDS011;53180;51.344;6.152;2022-11-15T09:41:17;0.80;;;0.80;;
33270;SDS011;53180;51.344;6.152;2022-11-15T09:44:38;0.80;;;0.80;;
33270;SDS011;53180;51.344;6.152;2022-11-15T09:47:27;0.70;;;0.70;;
33270;SDS011;53180;51.344;6.152;2022-11-15T09:50:31;1.23;;;0.80;;
33270;SDS011;53180;51.344;6.152;2022-11-15T09:53:08;1.70;;;0.90;;
33270;SDS011;53180;51.344;6.152;2022-11-15T09:55:40;1.10;;;0.93;;
33270;SDS011;53180;51.344;6.152;2022-11-15T09:58:16;1.45;;;0.90;;
33270;SDS011;53180;51.344;6.152;2022-11-15T10:00:54;1.38;;;0.80;;
33270;SDS011;53180;51.344;6.152;2022-11-15T10:03:27;0.70;;;0.70;;
33270;SDS011;53180;51.344;6.152;2022-11-15T10:06:00;1.00;;;0.90;;
33270;SDS011;53180;51.344;6.152;2022-11-15T10:08:35;3.33;;;1.00;;
33270;SDS011;53180;51.344;6.152;2022-11-15T10:11:19;0.80;;;0.80;;
33270;SDS011;53180;51.344;6.152;2022-11-15T10:14:08;0.52;;;0.52;;
33270;SDS011;53180;51.344;6.152;2022-11-15T10:16:48;0.60;;;0.60;;
33270;SDS011;53180;51.344;6.152;2022-11-15T10:19:55;0.73;;;0.73;;
33270;SDS011;53180;51.344;6.152;2022-11-15T10:22:35;0.50;;;0.50;;
33270;SDS011;53180;51.344;6.152;2022-11-15T10:25:19;2.55;;;0.75;;
33270;SDS011;53180;51.344;6.152;2022-11-15T10:27:52;0.60;;;0.60;;
33270;SDS011;53180;51.344;6.152;2022-11-15T10:30:28;0.50;;;0.50;;
33270;SDS011;53180;51.344;6.152;2022-11-15T10:33:08;0.98;;;0.63;;
33270;SDS011;53180;51.344;6.152;2022-11-15T10:35:47;1.15;;;0.70;;
33270;SDS011;53180;51.344;6.152;2022-11-15T10:38:18;3.42;;;0.55;;
33270;SDS011;53180;51.344;6.152;2022-11-15T10:40:48;3.78;;;0.50;;
33270;SDS011;53180;51.344;6.152;2022-11-15T10:43:34;0.50;;;0.50;;
33270;SDS011;53180;51.344;6.152;2022-11-15T10:46:09;0.75;;;0.60;;
33270;SDS011;53180;51.344;6.152;2022-11-15T10:49:14;0.55;;;0.55;;
33270;SDS011;53180;51.344;6.152;2022-11-15T10:51:46;0.55;;;0.55;;
33270;SDS011;53180;51.344;6.152;2022-11-15T10:54:18;0.52;;;0.52;;
33270;SDS011;53180;51.344;6.152;2022-11-15T10:56:53;3.75;;;0.70;;
33270;SDS011;53180;51.344;6.152;2022-11-15T10:59:26;1.08;;;0.65;;
33270;SDS011;53180;51.344;6.152;2022-11-15T11:04:59;0.52;;;0.50;;
33270;SDS011;53180;51.344;6.152;2022-11-15T11:07:29;1.95;;;0.70;;
33270;SDS011;53180;51.344;6.152;2022-11-15T11:10:02;0.65;;;0.65;;
33270;SDS011;53180;51.344;6.152;2022-11-15T11:13:23;0.98;;;0.45;;
33270;SDS011;53180;51.344;6.152;2022-11-15T11:15:55;0.50;;;0.50;;
33270;SDS011;53180;51.344;6.152;2022-11-15T11:18:33;0.68;;;0.63;;
33270;SDS011;53180;51.344;6.152;2022-11-15T11:21:09;0.60;;;0.60;;
33270;SDS011;53180;51.344;6.152;2022-11-15T11:23:44;1.33;;;0.85;;
33270;SDS011;53180;51.344;6.152;2022-11-15T11:26:33;5.07;;;0.60;;
33270;SDS011;53180;51.344;6.152;2022-11-15T11:29:18;0.82;;;0.60;;
33270;SDS011;53180;51.344;6.152;2022-11-15T11:31:58;0.50;;;0.50;;
33270;SDS011;53180;51.344;6.152;2022-11-15T11:34:40;2.03;;;0.60;;
33270;SDS011;53180;51.344;6.152;2022-11-15T11:37:21;0.50;;;0.50;;
33270;SDS011;53180;51.344;6.152;2022-11-15T11:40:00;0.50;;;0.50;;
33270;SDS011;53180;51.344;6.152;2022-11-15T11:42:45;0.43;;;0.43;;
33270;SDS011;53180;51.344;6.152;2022-11-15T11:45:31;0.50;;;0.50;;
33270;SDS011;53180;51.344;6.152;2022-11-15T11:48:38;0.60;;;0.60;;
33270;SDS011;53180;51.344;6.152;2022-11-15T11:51:12;0.50;;;0.50;;
33270;SDS011;53180;51.344;6.152;2022-11-15T11:53:48;0.65;;;0.35;;
33270;SDS011;53180;51.344;6.152;2022-11-15T11:56:25;0.40;;;0.40;;
33270;SDS011;53180;51.344;6.152;2022-11-15T11:58:57;0.75;;;0.50;;
33270;SDS011;53180;51.344;6.152;2022-11-15T12:01:36;5.68;;;0.63;;
33270;SDS011;53180;51.344;6.152;2022-11-15T12:04:09;0.60;;;0.50;;
33270;SDS011;53180;51.344;6.152;2022-11-15T12:06:45;0.45;;;0.45;;
33270;SDS011;53180;51.344;6.152;2022-11-15T12:09:19;0.63;;;0.55;;
33270;SDS011;53180;51.344;6.152;2022-11-15T12:12:00;1.13;;;0.60;;
33270;SDS011;53180;51.344;6.152;2022-11-15T12:14:39;2.58;;;0.65;;
33270;SDS011;53180;51.344;6.152;2022-11-15T12:17:13;1.00;;;0.50;;
33270;SDS011;53180;51.344;6.152;2022-11-15T12:19:50;0.80;;;0.50;;
33270;SDS011;53180;51.344;6.152;2022-11-15T12:22:20;1.10;;;0.60;;
33270;SDS011;53180;51.344;6.152;2022-11-15T12:24:52;0.77;;;0.50;;
33270;SDS011;53180;51.344;6.152;2022-11-15T12:27:29;0.40;;;0.40;;
33270;SDS011;53180;51.344;6.152;2022-11-15T12:30:03;3.40;;;0.50;;
33270;SDS011;53180;51.344;6.152;2022-11-15T12:32:47;0.63;;;0.60;;
33270;SDS011;53180;51.344;6.152;2022-11-15T12:35:21;1.70;;;0.65;;
33270;SDS011;53180;51.344;6.152;2022-11-15T12:38:00;2.30;;;0.85;;
33270;SDS011;53180;51.344;6.152;2022-11-15T12:40:29;0.63;;;0.50;;
33270;SDS011;53180;51.344;6.152;2022-11-15T12:46:13;1.45;;;0.50;;
33270;SDS011;53180;51.344;6.152;2022-11-15T12:49:10;0.50;;;0.50;;
33270;SDS011;53180;51.344;6.152;2022-11-15T12:52:11;1.27;;;0.70;;
33270;SDS011;53180;51.344;6.152;2022-11-15T12:54:50;0.60;;;0.60;;
33270;SDS011;53180;51.344;6.152;2022-11-15T12:57:35;0.88;;;0.60;;
33270;SDS011;53180;51.344;6.152;2022-11-15T13:03:21;8.98;;;0.68;;
33270;SDS011;53180;51.344;6.152;2022-11-15T13:08:42;0.40;;;0.40;;
33270;SDS011;53180;51.344;6.152;2022-11-15T13:17:23;1.27;;;0.50;;
33270;SDS011;53180;51.344;6.152;2022-11-15T13:23:00;0.88;;;0.60;;
33270;SDS011;53180;51.344;6.152;2022-11-15T13:25:47;2.00;;;0.55;;
33270;SDS011;53180;51.344;6.152;2022-11-15T13:28:35;0.47;;;0.47;;
33270;SDS011;53180;51.344;6.152;2022-11-15T13:31:19;0.77;;;0.57;;
33270;SDS011;53180;51.344;6.152;2022-11-15T13:33:56;0.80;;;0.60;;
33270;SDS011;53180;51.344;6.152;2022-11-15T13:36:28;0.50;;;0.50;;
33270;SDS011;53180;51.344;6.152;2022-11-15T13:39:02;0.50;;;0.50;;
33270;SDS011;53180;51.344;6.152;2022-11-15T13:41:33;1.50;;;0.80;;
33270;SDS011;53180;51.344;6.152;2022-11-15T13:44:03;1.20;;;0.63;;
33270;SDS011;53180;51.344;6.152;2022-11-15T13:46:47;0.60;;;0.60;;
33270;SDS011;53180;51.344;6.152;2022-11-15T13:49:15;2.20;;;0.70;;
33270;SDS011;53180;51.344;6.152;2022-11-15T13:51:44;1.50;;;0.82;;
33270;SDS011;53180;51.344;6.152;2022-11-15T13:54:18;0.90;;;0.63;;
33270;SDS011;53180;51.344;6.152;2022-11-15T13:56:52;1.00;;;0.70;;
33270;SDS011;53180;51.344;6.152;2022-11-15T13:59:25;1.08;;;0.60;;
33270;SDS011;53180;51.344;6.152;2022-11-15T14:01:55;0.75;;;0.60;;
33270;SDS011;53180;51.344;6.152;2022-11-15T14:04:27;3.20;;;0.70;;
33270;SDS011;53180;51.344;6.152;2022-11-15T14:07:00;1.05;;;0.60;;
33270;SDS011;53180;51.344;6.152;2022-11-15T14:09:35;0.63;;;0.50;;
33270;SDS011;53180;51.344;6.152;2022-11-15T14:12:24;0.60;;;0.60;;
33270;SDS011;53180;51.344;6.152;2022-11-15T14:14:58;1.50;;;0.70;;
33270;SDS011;53180;51.344;6.152;2022-11-15T14:17:36;0.98;;;0.70;;
33270;SDS011;53180;51.344;6.152;2022-11-15T14:20:29;2.70;;;0.63;;
33270;SDS011;53180;51.344;6.152;2022-11-15T14:22:59;0.95;;;0.90;;
33270;SDS011;53180;51.344;6.152;2022-11-15T14:25:31;0.88;;;0.70;;
33270;SDS011;53180;51.344;6.152;2022-11-15T14:28:08;1.60;;;0.70;;
33270;SDS011;53180;51.344;6.152;2022-11-15T14:30:43;2.25;;;0.90;;
33270;SDS011;53180;51.344;6.152;2022-11-15T14:33:20;0.70;;;0.70;;
33270;SDS011;53180;51.344;6.152;2022-11-15T14:35:51;1.20;;;0.60;;
33270;SDS011;53180;51.344;6.152;2022-11-15T14:38:20;1.00;;;0.70;;
33270;SDS011;53180;51.344;6.152;2022-11-15T14:40:50;2.58;;;0.98;;
33270;SDS011;53180;51.344;6.152;2022-11-15T14:43:20;1.35;;;0.68;;
33270;SDS011;53180;51.344;6.152;2022-11-15T14:45:48;1.40;;;0.77;;
33270;SDS011;53180;51.344;6.152;2022-11-15T14:48:17;1.52;;;0.70;;
33270;SDS011;53180;51.344;6.152;2022-11-15T14:50:45;2.63;;;0.82;;
33270;SDS011;53180;51.344;6.152;2022-11-15T14:53:14;0.80;;;0.60;;
33270;SDS011;53180;51.344;6.152;2022-11-15T14:55:45;1.58;;;0.80;;
33270;SDS011;53180;51.344;6.152;2022-11-15T14:58:14;1.60;;;0.70;;
33270;SDS011;53180;51.344;6.152;2022-11-15T15:00:42;1.42;;;0.73;;
33270;SDS011;53180;51.344;6.152;2022-11-15T15:03:11;0.80;;;0.80;;
33270;SDS011;53180;51.344;6.152;2022-11-15T15:05:39;1.23;;;0.60;;
33270;SDS011;53180;51.344;6.152;2022-11-15T15:08:10;0.77;;;0.77;;
33270;SDS011;53180;51.344;6.152;2022-11-15T15:10:39;2.85;;;1.00;;
33270;SDS011;53180;51.344;6.152;2022-11-15T15:13:14;1.05;;;0.90;;
33270;SDS011;53180;51.344;6.152;2022-11-15T15:15:46;0.98;;;0.77;;
33270;SDS011;53180;51.344;6.152;2022-11-15T15:18:16;1.65;;;0.75;;
33270;SDS011;53180;51.344;6.152;2022-11-15T15:20:54;1.30;;;0.80;;
33270;SDS011;53180;51.344;6.152;2022-11-15T15:23:26;1.98;;;1.00;;
33270;SDS011;53180;51.344;6.152;2022-11-15T15:25:57;1.63;;;0.77;;
33270;SDS011;53180;51.344;6.152;2022-11-15T15:28:26;0.80;;;0.80;;
33270;SDS011;53180;51.344;6.152;2022-11-15T15:31:00;0.80;;;0.75;;
33270;SDS011;53180;51.344;6.152;2022-11-15T15:33:28;2.33;;;0.70;;
33270;SDS011;53180;51.344;6.152;2022-11-15T15:35:56;0.88;;;0.75;;
33270;SDS011;53180;51.344;6.152;2022-11-15T15:38:25;2.65;;;0.90;;
33270;SDS011;53180;51.344;6.152;2022-11-15T15:40:53;1.60;;;0.82;;
33270;SDS011;53180;51.344;6.152;2022-11-15T15:43:22;0.85;;;0.77;;
33270;SDS011;53180;51.344;6.152;2022-11-15T15:45:51;0.93;;;0.80;;
33270;SDS011;53180;51.344;6.152;2022-11-15T15:48:20;1.17;;;0.93;;
33270;SDS011;53180;51.344;6.152;2022-11-15T15:50:48;2.35;;;1.05;;